createdAt,value
2024-02-17T00:03:37.173Z,9.48
2024-02-17T00:08:40.551Z,9.30
2024-02-17T00:13:45.972Z,9.18
2024-02-17T00:18:49.444Z,9.00
2024-02-17T00:23:52.647Z,8.92
2024-02-17T00:28:58.682Z,8.87
2024-02-17T00:34:01.977Z,8.74
2024-02-17T00:39:06.361Z,8.57
2024-02-17T00:44:10.936Z,8.52
2024-02-17T00:49:14.204Z,8.34
2024-02-17T00:54:17.758Z,8.04
2024-02-17T00:59:22.362Z,7.86
2024-02-17T01:04:25.681Z,7.65
2024-02-17T01:09:29.200Z,7.40
2024-02-17T01:14:34.110Z,7.19
2024-02-17T01:19:37.309Z,7.20
2024-02-17T01:24:40.616Z,7.00
2024-02-17T01:29:45.242Z,6.95
2024-02-17T01:34:48.355Z,6.83
2024-02-17T01:39:51.706Z,6.71
2024-02-17T01:44:56.398Z,6.61
2024-02-17T01:50:00.218Z,6.54
2024-02-17T01:55:05.170Z,6.45
2024-02-17T02:00:11.901Z,6.39
2024-02-17T02:05:15.608Z,6.34
2024-02-17T02:10:19.054Z,6.31
2024-02-17T02:15:29.891Z,6.27
2024-02-17T02:20:40.602Z,6.35
2024-02-17T02:25:52.135Z,6.54
2024-02-17T02:30:57.451Z,6.75
2024-02-17T02:36:00.606Z,6.83
2024-02-17T02:41:05.218Z,6.88
2024-02-17T02:46:08.751Z,6.89
2024-02-17T02:51:12.471Z,6.94
2024-02-17T02:56:17.280Z,6.95
2024-02-17T03:01:20.860Z,6.94
2024-02-17T03:06:25.352Z,6.87
2024-02-17T03:11:30.128Z,6.75
2024-02-17T03:16:33.330Z,6.68
2024-02-17T03:21:37.685Z,6.67
2024-02-17T03:26:42.997Z,6.68
2024-02-17T03:31:47.753Z,6.70
2024-02-17T03:36:51.216Z,6.77
2024-02-17T03:41:56.481Z,6.88
2024-02-17T03:46:59.696Z,6.89
2024-02-17T03:52:02.949Z,6.88
2024-02-17T03:57:07.555Z,6.87
2024-02-17T04:02:10.722Z,6.79
2024-02-17T04:07:13.936Z,6.66
2024-02-17T04:12:18.962Z,6.55
2024-02-17T04:17:22.384Z,6.41
2024-02-17T04:22:26.388Z,6.29
2024-02-17T04:27:31.088Z,6.21
2024-02-17T04:32:34.417Z,6.15
2024-02-17T04:37:38.428Z,6.09
2024-02-17T04:42:43.127Z,6.00
2024-02-17T04:47:46.425Z,5.89
2024-02-17T04:52:49.740Z,5.84
2024-02-17T04:57:54.957Z,5.87
2024-02-17T05:02:58.333Z,5.94
2024-02-17T05:08:01.600Z,6.12
2024-02-17T05:13:06.871Z,6.28
2024-02-17T05:18:10.304Z,6.47
2024-02-17T05:23:13.531Z,6.62
2024-02-17T05:28:18.093Z,6.79
2024-02-17T05:33:21.685Z,6.90
2024-02-17T05:38:25.055Z,7.09
2024-02-17T05:43:29.971Z,7.16
2024-02-17T05:48:33.288Z,7.20
2024-02-17T05:53:36.541Z,7.28
2024-02-17T05:58:41.095Z,7.35
2024-02-17T06:03:44.470Z,7.48
2024-02-17T06:08:47.609Z,7.54
2024-02-17T06:13:54.929Z,7.46
2024-02-17T06:19:16.536Z,7.46
2024-02-17T06:24:20.016Z,7.53
2024-02-17T06:29:24.665Z,7.60
2024-02-17T06:34:28.078Z,7.65
2024-02-17T06:39:31.629Z,7.60
2024-02-17T06:44:36.112Z,7.62
2024-02-17T06:49:39.577Z,7.58
2024-02-17T06:54:43.153Z,7.58
2024-02-17T06:59:47.702Z,7.66
2024-02-17T07:04:50.952Z,7.72
2024-02-17T07:09:54.271Z,7.82
2024-02-17T07:14:58.919Z,7.88
2024-02-17T07:20:02.246Z,7.90
2024-02-17T07:25:06.406Z,7.93
2024-02-17T07:30:12.279Z,7.99
2024-02-17T07:35:15.606Z,8.03
2024-02-17T07:40:19.115Z,8.17
2024-02-17T07:45:23.809Z,8.30
2024-02-17T07:50:27.241Z,8.47
2024-02-17T07:55:31.337Z,8.54
2024-02-17T08:00:36.066Z,8.57
2024-02-17T08:05:39.713Z,8.73
2024-02-17T08:10:43.113Z,8.78
2024-02-17T08:15:47.772Z,8.92
2024-02-17T08:20:52.222Z,9.02
2024-02-17T08:25:55.539Z,9.05
2024-02-17T08:31:00.165Z,9.14
2024-02-17T08:36:03.383Z,9.23
2024-02-17T08:41:06.690Z,9.29
2024-02-17T08:46:11.248Z,9.32
2024-02-17T08:51:14.487Z,9.37
2024-02-17T08:56:17.593Z,9.38
2024-02-17T09:01:22.175Z,9.41
2024-02-17T09:06:25.534Z,9.51
2024-02-17T09:11:28.774Z,9.54
2024-02-17T09:16:33.414Z,9.63
2024-02-17T09:21:37.511Z,9.77
2024-02-17T09:26:41.531Z,9.84
2024-02-17T09:31:46.585Z,9.91
2024-02-17T09:36:49.982Z,10.08
2024-02-17T09:41:53.137Z,10.20
2024-02-17T09:46:58.404Z,10.43
2024-02-17T09:52:02.404Z,10.61
2024-02-17T09:57:07.318Z,10.84
2024-02-17T10:02:13.134Z,10.94
2024-02-17T10:07:16.297Z,10.93
2024-02-17T10:12:19.613Z,11.01
2024-02-17T10:17:24.849Z,11.09
2024-02-17T10:22:28.048Z,11.08
2024-02-17T10:27:33.284Z,11.08
2024-02-17T10:32:38.427Z,11.08
2024-02-17T10:37:42.348Z,11.08
2024-02-17T10:42:47.977Z,11.10
2024-02-17T10:48:01.369Z,11.11
2024-02-17T10:53:11.232Z,11.12
2024-02-17T10:58:18.274Z,11.15
2024-02-17T11:03:25.698Z,11.18
2024-02-17T11:08:29.644Z,11.17
2024-02-17T11:13:33.148Z,11.26
2024-02-17T11:18:40.413Z,11.34
2024-02-17T11:23:44.356Z,11.42
2024-02-17T11:28:48.194Z,11.51
2024-02-17T11:33:55.152Z,11.64
2024-02-17T11:39:00.771Z,11.76
2024-02-17T11:44:04.888Z,11.85
2024-02-17T11:49:12.870Z,11.95
2024-02-17T11:54:16.733Z,11.96
2024-02-17T11:59:20.068Z,12.08
2024-02-17T12:04:24.704Z,12.34
2024-02-17T12:09:27.960Z,12.54
2024-02-17T12:14:31.272Z,12.77
2024-02-17T12:19:36.564Z,12.89
2024-02-17T12:24:39.952Z,13.13
2024-02-17T12:29:52.577Z,13.18
2024-02-17T12:34:57.680Z,13.37
2024-02-17T12:40:00.925Z,13.28
2024-02-17T12:45:05.142Z,13.35
2024-02-17T12:50:19.141Z,13.37
2024-02-17T12:55:23.360Z,13.54
2024-02-17T13:00:26.538Z,13.35
2024-02-17T13:05:31.157Z,13.22
2024-02-17T13:10:34.927Z,12.96
2024-02-17T13:15:38.155Z,12.81
2024-02-17T13:20:42.861Z,12.60
2024-02-17T13:25:46.070Z,12.46
2024-02-17T13:30:49.350Z,12.39
2024-02-17T13:35:54.170Z,12.40
2024-02-17T13:40:57.866Z,12.13
2024-02-17T13:46:01.518Z,12.01
2024-02-17T13:51:06.829Z,11.96
2024-02-17T13:56:10.261Z,11.98
2024-02-17T14:01:14.952Z,11.96
2024-02-17T14:06:20.970Z,12.02
2024-02-17T14:11:24.666Z,11.99
2024-02-17T14:16:28.053Z,12.02
2024-02-17T14:21:33.273Z,12.02
2024-02-17T14:26:36.545Z,11.96
2024-02-17T14:31:43.134Z,11.89
2024-02-17T14:36:47.954Z,11.93
2024-02-17T14:41:51.088Z,11.88
2024-02-17T14:46:54.299Z,11.88
2024-02-17T14:52:00.375Z,11.85
2024-02-17T14:57:04.144Z,11.88
2024-02-17T15:02:08.107Z,11.93
2024-02-17T15:07:12.870Z,12.00
2024-02-17T15:12:16.696Z,11.96
2024-02-17T15:17:20.359Z,11.93
2024-02-17T15:22:25.512Z,11.93
2024-02-17T15:27:28.824Z,11.85
2024-02-17T15:32:32.302Z,11.74
2024-02-17T15:37:37.122Z,11.62
2024-02-17T15:42:40.385Z,11.58
2024-02-17T15:47:44.104Z,11.51
2024-02-17T15:52:48.710Z,11.49
2024-02-17T15:57:53.972Z,11.35
2024-02-17T16:02:57.971Z,11.19
2024-02-17T16:08:04.206Z,11.12
2024-02-17T16:13:07.608Z,10.96
2024-02-17T16:18:10.838Z,10.90
2024-02-17T16:23:17.749Z,10.80
2024-02-17T16:28:21.005Z,10.73
2024-02-17T16:33:25.757Z,10.64
2024-02-17T16:38:30.783Z,10.51
2024-02-17T16:43:34.062Z,10.44
2024-02-17T16:48:37.659Z,10.38
2024-02-17T16:53:43.455Z,10.35
2024-02-17T16:58:46.665Z,10.25
2024-02-17T17:03:50.050Z,10.15
2024-02-17T17:08:54.712Z,10.04
2024-02-17T17:13:58.143Z,9.90
2024-02-17T17:19:01.631Z,9.80
2024-02-17T17:24:06.914Z,9.72
2024-02-17T17:29:10.165Z,9.65
2024-02-17T17:34:13.578Z,9.57
2024-02-17T17:39:18.556Z,9.50
2024-02-17T17:44:21.909Z,9.43
2024-02-17T17:49:25.379Z,9.39
2024-02-17T17:54:30.307Z,9.34
2024-02-17T17:59:35.505Z,9.31
2024-02-17T18:04:39.212Z,9.27
2024-02-17T18:09:44.401Z,9.27
2024-02-17T18:14:47.759Z,9.21
2024-02-17T18:19:53.714Z,9.20
2024-02-17T18:24:58.855Z,9.16
2024-02-17T18:30:02.342Z,9.14
2024-02-17T18:35:07.170Z,9.09
2024-02-17T18:40:12.668Z,9.02
2024-02-17T18:45:16.464Z,8.95
2024-02-17T18:50:19.753Z,8.91
2024-02-17T18:55:24.697Z,8.89
2024-02-17T19:00:28.261Z,8.90
2024-02-17T19:05:32.520Z,8.93
2024-02-17T19:10:37.279Z,8.91
2024-02-17T19:15:40.721Z,8.93
2024-02-17T19:20:45.305Z,8.91
2024-02-17T19:25:50.565Z,8.89
2024-02-17T19:30:53.967Z,8.85
2024-02-17T19:35:57.747Z,8.81
2024-02-17T19:41:02.908Z,8.75
2024-02-17T19:46:06.297Z,8.69
2024-02-17T19:51:09.529Z,8.66
2024-02-17T19:56:15.074Z,8.63
2024-02-17T20:01:22.581Z,8.57
2024-02-17T20:06:26.576Z,8.51
2024-02-17T20:11:31.577Z,8.43
2024-02-17T20:16:34.717Z,8.33
2024-02-17T20:21:39.824Z,8.36
2024-02-17T20:26:44.394Z,8.30
2024-02-17T20:31:47.609Z,8.24
2024-02-17T20:36:52.693Z,8.24
2024-02-17T20:41:57.345Z,8.26
2024-02-17T20:47:00.823Z,8.24
2024-02-17T20:52:04.519Z,8.23
2024-02-17T20:57:10.954Z,8.30
2024-02-17T21:02:14.549Z,8.33
2024-02-17T21:07:17.830Z,8.38
2024-02-17T21:12:22.543Z,8.32
2024-02-17T21:17:26.183Z,8.33
2024-02-17T21:22:29.687Z,8.37
2024-02-17T21:27:34.453Z,8.34
2024-02-17T21:32:37.898Z,8.29
2024-02-17T21:37:41.330Z,8.23
2024-02-17T21:42:45.841Z,8.20
2024-02-17T21:47:49.081Z,8.20
2024-02-17T21:52:52.298Z,8.19
2024-02-17T21:57:57.031Z,8.14
2024-02-17T22:03:00.207Z,8.13
2024-02-17T22:08:03.378Z,8.11
2024-02-17T22:13:07.908Z,8.09
2024-02-17T22:18:11.092Z,8.10
2024-02-17T22:23:14.252Z,8.09
2024-02-17T22:28:18.731Z,8.06
2024-02-17T22:33:21.977Z,8.08
2024-02-17T22:38:25.088Z,8.05
2024-02-17T22:43:29.566Z,8.00
2024-02-17T22:48:33.155Z,7.96
2024-02-17T22:53:36.406Z,7.86
2024-02-17T22:58:40.830Z,7.76
2024-02-17T23:03:44.093Z,7.73
2024-02-17T23:08:47.257Z,7.72
2024-02-17T23:13:51.734Z,7.72
2024-02-17T23:18:55.469Z,7.74
2024-02-17T23:23:58.713Z,7.79
2024-02-17T23:29:03.221Z,7.80
2024-02-17T23:34:06.447Z,7.81
2024-02-17T23:39:09.712Z,7.83
2024-02-17T23:44:14.261Z,7.87
2024-02-17T23:49:17.521Z,7.86
2024-02-17T23:54:21.268Z,7.86
2024-02-17T23:59:25.930Z,7.86
